createdAt,value
2023-05-05T00:01:50.217Z,13.47
2023-05-05T00:04:16.762Z,13.44
2023-05-05T00:06:43.315Z,13.39
2023-05-05T00:09:09.736Z,13.35
2023-05-05T00:11:36.174Z,13.32
2023-05-05T00:14:02.655Z,13.29
2023-05-05T00:16:29.089Z,13.28
2023-05-05T00:18:55.555Z,13.25
2023-05-05T00:21:21.990Z,13.22
2023-05-05T00:23:48.443Z,13.17
2023-05-05T00:26:14.907Z,13.12
2023-05-05T00:28:41.571Z,13.08
2023-05-05T00:31:08.083Z,13.04
2023-05-05T00:33:34.574Z,12.99
2023-05-05T00:36:01.031Z,12.92
2023-05-05T00:38:27.465Z,12.86
2023-05-05T00:40:54.010Z,12.80
2023-05-05T00:43:20.487Z,12.76
2023-05-05T00:45:47.041Z,12.70
2023-05-05T00:48:13.995Z,12.64
2023-05-05T00:50:43.318Z,12.59
2023-05-05T00:53:09.797Z,12.55
2023-05-05T00:55:36.349Z,12.50
2023-05-05T00:58:03.551Z,12.43
2023-05-05T01:00:30.447Z,12.37
2023-05-05T01:02:57.127Z,12.30
2023-05-05T01:05:26.002Z,12.23
2023-05-05T01:08:00.371Z,12.17
2023-05-05T01:11:03.136Z,12.10
2023-05-05T01:13:44.632Z,12.01
2023-05-05T01:16:18.568Z,11.97
2023-05-05T01:18:52.452Z,11.93
2023-05-05T01:21:29.743Z,11.88
2023-05-05T01:24:14.511Z,11.83
2023-05-05T01:27:28.697Z,11.78
2023-05-05T01:30:13.238Z,11.74
2023-05-05T01:32:48.087Z,11.71
2023-05-05T01:35:43.753Z,11.67
2023-05-05T01:38:39.173Z,11.59
2023-05-05T01:41:13.241Z,11.53
2023-05-05T01:43:41.036Z,11.48
2023-05-05T01:46:08.607Z,11.43
2023-05-05T01:48:35.369Z,11.38
2023-05-05T01:51:03.102Z,11.35
2023-05-05T01:53:31.346Z,11.30
2023-05-05T01:55:58.386Z,11.24
2023-05-05T01:58:26.897Z,11.18
2023-05-05T02:00:56.556Z,11.14
2023-05-05T02:03:24.697Z,11.11
2023-05-05T02:05:53.815Z,11.08
2023-05-05T02:08:21.327Z,11.06
2023-05-05T02:10:49.374Z,11.03
2023-05-05T02:13:17.094Z,11.00
2023-05-05T02:15:44.853Z,10.95
2023-05-05T02:18:12.028Z,10.91
2023-05-05T02:20:39.774Z,10.88
2023-05-05T02:23:06.928Z,10.86
2023-05-05T02:25:43.259Z,10.82
2023-05-05T02:28:15.278Z,10.77
2023-05-05T02:30:42.662Z,10.73
2023-05-05T02:33:13.376Z,10.72
2023-05-05T02:35:42.101Z,10.68
2023-05-05T02:38:13.459Z,10.66
2023-05-05T02:40:43.413Z,10.63
2023-05-05T02:43:11.619Z,10.61
2023-05-05T02:45:38.335Z,10.59
2023-05-05T02:48:05.466Z,10.56
2023-05-05T02:50:32.994Z,10.55
2023-05-05T02:53:00.624Z,10.54
2023-05-05T02:55:36.621Z,10.49
2023-05-05T02:58:26.634Z,10.44
2023-05-05T03:01:03.922Z,10.42
2023-05-05T03:03:54.118Z,10.39
2023-05-05T03:06:22.690Z,10.35
2023-05-05T03:08:55.102Z,10.33
2023-05-05T03:11:31.798Z,10.29
2023-05-05T03:14:07.370Z,10.28
2023-05-05T03:16:36.773Z,10.25
2023-05-05T03:19:04.518Z,10.22
2023-05-05T03:21:32.486Z,10.20
2023-05-05T03:23:59.282Z,10.18
2023-05-05T03:26:25.777Z,10.15
2023-05-05T03:28:52.226Z,10.14
2023-05-05T03:31:18.862Z,10.12
2023-05-05T03:33:45.386Z,10.10
2023-05-05T03:36:11.831Z,10.07
2023-05-05T03:38:38.283Z,10.05
2023-05-05T03:41:04.799Z,10.02
2023-05-05T03:43:31.288Z,9.99
2023-05-05T03:45:57.760Z,9.98
2023-05-05T03:48:24.324Z,9.98
2023-05-05T03:50:50.842Z,9.98
2023-05-05T03:53:17.332Z,10.00
2023-05-05T03:55:43.780Z,10.02
2023-05-05T03:58:10.271Z,10.03
2023-05-05T04:00:36.744Z,10.04
2023-05-05T04:03:03.251Z,10.07
2023-05-05T04:05:29.747Z,10.09
2023-05-05T04:07:56.211Z,10.13
2023-05-05T04:10:22.637Z,10.16
2023-05-05T04:12:49.224Z,10.20
2023-05-05T04:15:15.822Z,10.25
2023-05-05T04:17:42.315Z,10.30
2023-05-05T04:20:09.529Z,10.36
2023-05-05T04:22:36.148Z,10.40
2023-05-05T04:25:02.677Z,10.45
2023-05-05T04:27:29.219Z,10.52
2023-05-05T04:29:56.702Z,10.58
2023-05-05T04:32:23.353Z,10.65
2023-05-05T04:34:50.512Z,10.70
2023-05-05T04:37:17.012Z,10.76
2023-05-05T04:39:43.464Z,10.82
2023-05-05T04:42:09.998Z,10.88
2023-05-05T04:44:36.620Z,10.92
2023-05-05T04:47:03.050Z,10.99
2023-05-05T04:49:30.256Z,11.05
2023-05-05T04:51:56.992Z,11.11
2023-05-05T04:54:23.766Z,11.18
2023-05-05T04:56:50.492Z,11.26
2023-05-05T04:59:17.136Z,11.33
2023-05-05T05:01:43.666Z,11.38
2023-05-05T05:04:10.217Z,11.45
2023-05-05T05:06:36.666Z,11.55
2023-05-05T05:09:03.377Z,11.63
2023-05-05T05:11:29.888Z,11.73
2023-05-05T05:13:56.404Z,11.81
2023-05-05T05:16:25.384Z,11.90
2023-05-05T05:18:51.910Z,11.98
2023-05-05T05:21:18.358Z,12.05
2023-05-05T05:23:44.799Z,12.12
2023-05-05T05:26:11.420Z,12.21
2023-05-05T05:28:37.896Z,12.26
2023-05-05T05:31:04.410Z,12.32
2023-05-05T05:33:30.916Z,12.38
2023-05-05T05:35:57.370Z,12.48
2023-05-05T05:38:23.881Z,12.58
2023-05-05T05:40:50.312Z,12.67
2023-05-05T05:43:16.790Z,12.76
2023-05-05T05:45:43.330Z,12.85
2023-05-05T05:48:09.869Z,12.95
2023-05-05T05:50:36.360Z,13.05
2023-05-05T05:53:02.870Z,13.15
2023-05-05T05:55:29.365Z,13.24
2023-05-05T05:57:55.901Z,13.33
2023-05-05T06:00:22.416Z,13.42
2023-05-05T06:02:48.960Z,13.51
2023-05-05T06:05:15.478Z,13.61
2023-05-05T06:07:41.896Z,13.70
2023-05-05T06:10:25.950Z,13.81
2023-05-05T06:12:54.403Z,13.91
2023-05-05T06:15:20.959Z,14.00
2023-05-05T06:17:47.500Z,14.09
2023-05-05T06:20:14.009Z,14.18
2023-05-05T06:22:40.536Z,14.25
2023-05-05T06:25:07.330Z,14.32
2023-05-05T06:27:33.827Z,14.38
2023-05-05T06:30:00.296Z,14.43
2023-05-05T06:32:26.779Z,14.49
2023-05-05T06:34:53.355Z,14.55
2023-05-05T06:37:19.857Z,14.61
2023-05-05T06:39:46.398Z,14.69
2023-05-05T06:42:12.889Z,14.75
2023-05-05T06:44:39.334Z,14.82
2023-05-05T06:47:06.028Z,14.90
2023-05-05T06:49:32.566Z,14.98
2023-05-05T06:51:59.055Z,15.07
2023-05-05T06:54:25.540Z,15.17
2023-05-05T06:56:51.975Z,15.27
2023-05-05T06:59:18.521Z,15.37
2023-05-05T07:01:45.065Z,15.47
2023-05-05T07:04:12.236Z,15.57
2023-05-05T07:06:38.704Z,15.68
2023-05-05T07:09:05.153Z,15.78
2023-05-05T07:11:31.614Z,15.88
2023-05-05T07:13:58.138Z,15.99
2023-05-05T07:16:25.271Z,16.09
2023-05-05T07:18:51.842Z,16.18
2023-05-05T07:21:18.257Z,16.28
2023-05-05T07:23:44.735Z,16.36
2023-05-05T07:26:11.404Z,16.45
2023-05-05T07:28:37.852Z,16.53
2023-05-05T07:31:04.348Z,16.62
2023-05-05T07:33:30.775Z,16.70
2023-05-05T07:35:57.269Z,16.80
2023-05-05T07:38:23.801Z,16.88
2023-05-05T07:40:50.293Z,16.96
2023-05-05T07:43:16.727Z,17.04
2023-05-05T07:45:43.355Z,17.13
2023-05-05T07:48:09.962Z,17.19
2023-05-05T07:50:36.418Z,17.22
2023-05-05T07:53:13.803Z,17.26
2023-05-05T07:55:41.658Z,17.28
2023-05-05T07:58:08.147Z,17.29
2023-05-05T08:00:34.588Z,17.34
2023-05-05T08:03:01.177Z,17.39
2023-05-05T08:05:27.721Z,17.43
2023-05-05T08:07:54.245Z,17.50
2023-05-05T08:10:20.842Z,17.58
2023-05-05T08:12:47.382Z,17.63
2023-05-05T08:15:13.910Z,17.68
2023-05-05T08:17:58.646Z,17.77
2023-05-05T08:20:28.876Z,17.90
2023-05-05T08:22:55.374Z,18.00
2023-05-05T08:25:21.874Z,18.10
2023-05-05T08:27:48.406Z,18.17
2023-05-05T08:30:14.991Z,18.26
2023-05-05T08:32:41.594Z,18.36
2023-05-05T08:35:08.676Z,18.43
2023-05-05T08:37:35.732Z,18.46
2023-05-05T08:40:02.243Z,18.44
2023-05-05T08:42:37.999Z,18.42
2023-05-05T08:45:08.403Z,18.46
2023-05-05T08:47:36.583Z,18.54
2023-05-05T08:50:03.681Z,18.62
2023-05-05T08:52:38.194Z,18.72
2023-05-05T08:55:25.400Z,18.83
2023-05-05T08:57:56.713Z,18.94
2023-05-05T09:00:23.952Z,19.07
2023-05-05T09:02:50.746Z,19.19
2023-05-05T09:05:17.384Z,19.31
2023-05-05T09:07:43.917Z,19.41
2023-05-05T09:10:12.267Z,19.52
2023-05-05T09:12:39.343Z,19.65
2023-05-05T09:15:11.061Z,19.77
2023-05-05T09:17:38.705Z,19.87
2023-05-05T09:20:10.503Z,19.97
2023-05-05T09:22:36.926Z,20.05
2023-05-05T09:25:08.734Z,20.14
2023-05-05T09:27:36.968Z,20.24
2023-05-05T09:30:05.397Z,20.32
2023-05-05T09:32:47.015Z,20.40
2023-05-05T09:35:13.959Z,20.49
2023-05-05T09:37:40.565Z,20.52
2023-05-05T09:40:08.145Z,20.57
2023-05-05T09:42:38.633Z,20.63
2023-05-05T09:45:24.794Z,20.69
2023-05-05T09:47:54.688Z,20.73
2023-05-05T09:50:23.243Z,20.75
2023-05-05T09:52:56.714Z,20.78
2023-05-05T09:55:24.373Z,20.82
2023-05-05T09:57:51.638Z,20.86
2023-05-05T10:00:18.751Z,20.85
2023-05-05T10:02:46.040Z,20.87
2023-05-05T10:05:14.934Z,20.91
2023-05-05T10:07:46.877Z,20.96
2023-05-05T10:10:17.851Z,20.98
2023-05-05T10:12:46.379Z,21.04
2023-05-05T10:15:15.607Z,21.09
2023-05-05T10:17:58.373Z,21.12
2023-05-05T10:20:33.026Z,21.10
2023-05-05T10:23:05.667Z,21.11
2023-05-05T10:25:39.115Z,21.22
2023-05-05T10:28:08.226Z,21.36
2023-05-05T10:30:43.020Z,21.50
2023-05-05T10:33:30.751Z,21.65
2023-05-05T10:36:03.900Z,21.87
2023-05-05T10:38:31.928Z,22.09
2023-05-05T10:41:00.318Z,22.33
2023-05-05T10:43:29.184Z,22.56
2023-05-05T10:45:56.694Z,22.85
2023-05-05T10:49:13.038Z,23.22
2023-05-05T10:51:41.041Z,23.70
2023-05-05T10:54:21.285Z,24.12
2023-05-05T10:56:48.220Z,24.57
2023-05-05T10:59:36.285Z,25.18
2023-05-05T11:02:25.073Z,25.85
2023-05-05T11:05:04.445Z,26.51
2023-05-05T11:07:31.300Z,27.04
2023-05-05T11:10:00.232Z,27.44
2023-05-05T11:12:27.505Z,27.82
2023-05-05T11:15:28.012Z,28.08
2023-05-05T11:17:56.408Z,28.09
2023-05-05T11:20:35.227Z,27.98
2023-05-05T11:23:05.399Z,27.85
2023-05-05T11:25:35.011Z,27.60
2023-05-05T11:28:09.960Z,27.27
2023-05-05T11:30:56.886Z,27.00
2023-05-05T11:33:27.679Z,26.68
2023-05-05T11:36:18.058Z,26.44
2023-05-05T11:39:03.103Z,26.21
2023-05-05T11:41:38.591Z,25.97
2023-05-05T11:44:16.450Z,25.78
2023-05-05T11:46:53.463Z,25.56
2023-05-05T11:49:37.562Z,25.34
2023-05-05T11:52:12.717Z,25.18
2023-05-05T11:54:44.183Z,25.03
2023-05-05T11:57:10.516Z,24.89
2023-05-05T12:00:14.744Z,24.79
2023-05-05T12:02:41.338Z,24.63
2023-05-05T12:05:08.085Z,24.52
2023-05-05T12:07:34.571Z,24.46
2023-05-05T12:10:01.030Z,24.41
2023-05-05T12:12:38.834Z,24.34
2023-05-05T12:15:06.180Z,24.21
2023-05-05T12:17:37.617Z,24.14
2023-05-05T12:20:04.445Z,24.16
2023-05-05T12:22:30.884Z,24.14
2023-05-05T12:24:59.864Z,24.02
2023-05-05T12:27:27.716Z,23.94
2023-05-05T12:30:10.420Z,23.96
2023-05-05T12:32:36.997Z,23.98
2023-05-05T12:35:03.830Z,24.00
2023-05-05T12:37:30.507Z,24.06
2023-05-05T12:39:56.992Z,24.12
2023-05-05T12:42:23.697Z,24.17
2023-05-05T12:44:50.420Z,24.22
2023-05-05T12:47:32.730Z,24.26
2023-05-05T12:49:59.857Z,24.30
2023-05-05T12:52:45.227Z,24.33
2023-05-05T12:55:12.398Z,24.33
2023-05-05T12:57:57.819Z,24.29
2023-05-05T13:00:25.092Z,24.25
2023-05-05T13:02:51.642Z,24.25
2023-05-05T13:05:32.175Z,24.27
2023-05-05T13:07:58.849Z,24.31
2023-05-05T13:10:25.446Z,24.36
2023-05-05T13:12:55.400Z,24.37
2023-05-05T13:15:21.981Z,24.35
2023-05-05T13:17:48.482Z,24.37
2023-05-05T13:20:15.021Z,24.48
2023-05-05T13:22:41.553Z,24.63
2023-05-05T13:25:08.127Z,24.72
2023-05-05T13:27:34.667Z,24.82
2023-05-05T13:30:01.116Z,24.90
2023-05-05T13:32:27.696Z,24.89
2023-05-05T13:34:54.165Z,24.83
2023-05-05T13:37:20.663Z,24.81
2023-05-05T13:39:47.160Z,24.79
2023-05-05T13:42:13.600Z,24.83
2023-05-05T13:44:40.062Z,25.00
2023-05-05T13:47:06.592Z,25.03
2023-05-05T13:49:34.288Z,25.04
2023-05-05T13:52:00.749Z,25.01
2023-05-05T13:54:27.211Z,24.97
2023-05-05T13:56:53.645Z,25.01
2023-05-05T13:59:20.074Z,25.04
2023-05-05T14:01:46.514Z,25.02
2023-05-05T14:04:13.013Z,24.94
2023-05-05T14:06:39.732Z,24.84
2023-05-05T14:09:06.552Z,24.81
2023-05-05T14:11:33.314Z,24.80
2023-05-05T14:13:59.824Z,24.76
2023-05-05T14:16:26.290Z,24.74
2023-05-05T14:18:52.897Z,24.72
2023-05-05T14:21:19.335Z,24.59
2023-05-05T14:23:45.782Z,24.41
2023-05-05T14:26:12.272Z,24.31
2023-05-05T14:28:38.704Z,24.26
2023-05-05T14:31:05.271Z,24.23
2023-05-05T14:33:31.717Z,24.20
2023-05-05T14:35:58.289Z,24.17
2023-05-05T14:38:24.864Z,24.17
2023-05-05T14:40:51.364Z,24.24
2023-05-05T14:43:18.006Z,24.32
2023-05-05T14:45:44.558Z,24.35
2023-05-05T14:48:11.106Z,24.36
2023-05-05T14:50:37.734Z,24.31
2023-05-05T14:53:04.216Z,24.24
2023-05-05T14:55:30.742Z,24.16
2023-05-05T14:57:57.346Z,24.10
2023-05-05T15:00:23.866Z,24.06
2023-05-05T15:02:50.506Z,24.02
2023-05-05T15:05:17.068Z,23.94
2023-05-05T15:07:43.544Z,23.83
2023-05-05T15:10:10.555Z,23.74
2023-05-05T15:12:37.052Z,23.66
2023-05-05T15:15:03.889Z,23.60
2023-05-05T15:17:30.395Z,23.60
2023-05-05T15:19:56.988Z,23.63
2023-05-05T15:22:23.452Z,23.63
2023-05-05T15:24:49.999Z,23.58
2023-05-05T15:27:16.484Z,23.49
2023-05-05T15:29:42.944Z,23.39
2023-05-05T15:32:09.455Z,23.31
2023-05-05T15:34:35.990Z,23.26
2023-05-05T15:37:02.536Z,23.20
2023-05-05T15:39:29.071Z,23.17
2023-05-05T15:41:55.499Z,23.13
2023-05-05T15:44:21.963Z,23.08
2023-05-05T15:46:50.379Z,23.06
2023-05-05T15:49:17.087Z,23.05
2023-05-05T15:51:43.515Z,23.06
2023-05-05T15:54:10.020Z,23.07
2023-05-05T15:56:36.498Z,23.05
2023-05-05T15:59:02.992Z,23.02
2023-05-05T16:01:29.685Z,23.01
2023-05-05T16:03:56.164Z,23.01
2023-05-05T16:06:22.671Z,23.00
2023-05-05T16:08:49.110Z,22.96
2023-05-05T16:11:15.554Z,22.90
2023-05-05T16:13:41.999Z,22.84
2023-05-05T16:16:08.493Z,22.79
2023-05-05T16:18:34.968Z,22.74
2023-05-05T16:21:01.717Z,22.70
2023-05-05T16:23:28.234Z,22.66
2023-05-05T16:25:54.923Z,22.62
2023-05-05T16:28:21.396Z,22.58
2023-05-05T16:30:47.897Z,22.54
2023-05-05T16:33:14.416Z,22.53
2023-05-05T16:35:46.107Z,22.49
2023-05-05T16:38:12.995Z,22.47
2023-05-05T16:40:39.790Z,22.43
2023-05-05T16:43:06.274Z,22.35
2023-05-05T16:45:32.731Z,22.27
2023-05-05T16:48:01.774Z,22.21
2023-05-05T16:50:28.329Z,22.15
2023-05-05T16:52:55.015Z,22.11
2023-05-05T16:55:21.495Z,22.06
2023-05-05T16:57:47.973Z,22.00
2023-05-05T17:00:14.833Z,21.93
2023-05-05T17:02:41.450Z,21.84
2023-05-05T17:05:08.558Z,21.78
2023-05-05T17:07:35.316Z,21.72
2023-05-05T17:10:01.768Z,21.68
2023-05-05T17:12:28.319Z,21.65
2023-05-05T17:14:54.774Z,21.60
2023-05-05T17:17:21.257Z,21.55
2023-05-05T17:19:47.706Z,21.50
2023-05-05T17:22:14.152Z,21.46
2023-05-05T17:24:40.623Z,21.43
2023-05-05T17:27:07.133Z,21.40
2023-05-05T17:29:33.582Z,21.36
2023-05-05T17:32:00.111Z,21.33
2023-05-05T17:34:26.717Z,21.30
2023-05-05T17:36:53.182Z,21.27
2023-05-05T17:39:19.639Z,21.24
2023-05-05T17:41:46.099Z,21.19
2023-05-05T17:44:12.600Z,21.16
2023-05-05T17:46:39.398Z,21.10
2023-05-05T17:49:06.223Z,21.03
2023-05-05T17:51:32.741Z,20.96
2023-05-05T17:53:59.266Z,20.87
2023-05-05T17:56:25.854Z,20.80
2023-05-05T17:58:52.310Z,20.71
2023-05-05T18:01:26.419Z,20.65
2023-05-05T18:03:52.971Z,20.59
2023-05-05T18:06:19.672Z,20.51
2023-05-05T18:08:46.209Z,20.43
2023-05-05T18:11:12.668Z,20.35
2023-05-05T18:13:39.164Z,20.30
2023-05-05T18:16:06.083Z,20.22
2023-05-05T18:18:32.703Z,20.14
2023-05-05T18:20:59.173Z,20.07
2023-05-05T18:23:25.709Z,19.99
2023-05-05T18:25:52.206Z,19.90
2023-05-05T18:28:18.731Z,19.81
2023-05-05T18:30:45.181Z,19.72
2023-05-05T18:33:11.617Z,19.63
2023-05-05T18:35:38.069Z,19.54
2023-05-05T18:38:04.570Z,19.44
2023-05-05T18:40:31.049Z,19.35
2023-05-05T18:42:57.503Z,19.26
2023-05-05T18:45:24.151Z,19.17
2023-05-05T18:47:50.834Z,19.07
2023-05-05T18:50:17.414Z,18.98
2023-05-05T18:52:44.058Z,18.90
2023-05-05T18:55:10.644Z,18.81
2023-05-05T18:57:37.326Z,18.72
2023-05-05T19:00:04.034Z,18.64
2023-05-05T19:02:30.517Z,18.55
2023-05-05T19:04:57.103Z,18.46
2023-05-05T19:07:34.279Z,18.38
2023-05-05T19:10:01.766Z,18.28
2023-05-05T19:12:28.249Z,18.19
2023-05-05T19:14:54.907Z,18.11
2023-05-05T19:17:21.399Z,18.02
2023-05-05T19:19:47.881Z,17.93
2023-05-05T19:22:15.148Z,17.84
2023-05-05T19:24:41.585Z,17.76
2023-05-05T19:27:08.131Z,17.68
2023-05-05T19:29:34.774Z,17.61
2023-05-05T19:32:01.257Z,17.53
2023-05-05T19:34:27.727Z,17.46
2023-05-05T19:36:54.235Z,17.38
2023-05-05T19:39:20.694Z,17.33
2023-05-05T19:41:47.274Z,17.25
2023-05-05T19:44:13.708Z,17.18
2023-05-05T19:46:40.289Z,17.11
2023-05-05T19:49:06.838Z,17.03
2023-05-05T19:51:33.448Z,16.94
2023-05-05T19:53:59.865Z,16.87
2023-05-05T19:56:26.349Z,16.81
2023-05-05T19:59:00.230Z,16.75
2023-05-05T20:01:28.242Z,16.70
2023-05-05T20:03:56.216Z,16.64
2023-05-05T20:06:23.479Z,16.57
2023-05-05T20:08:50.092Z,16.52
2023-05-05T20:11:17.347Z,16.46
2023-05-05T20:13:44.241Z,16.41
2023-05-05T20:16:10.816Z,16.36
2023-05-05T20:18:37.422Z,16.32
2023-05-05T20:21:04.355Z,16.28
2023-05-05T20:23:30.837Z,16.22
2023-05-05T20:25:57.378Z,16.17
2023-05-05T20:28:23.890Z,16.13
2023-05-05T20:30:50.415Z,16.10
2023-05-05T20:33:16.918Z,16.05
2023-05-05T20:35:43.361Z,16.02
2023-05-05T20:38:09.893Z,15.99
2023-05-05T20:40:36.513Z,15.96
2023-05-05T20:43:03.020Z,15.91
2023-05-05T20:45:29.523Z,15.86
2023-05-05T20:47:56.165Z,15.83
2023-05-05T20:50:22.619Z,15.78
2023-05-05T20:52:49.098Z,15.74
2023-05-05T20:55:15.932Z,15.71
2023-05-05T20:57:42.361Z,15.66
2023-05-05T21:00:09.481Z,15.61
2023-05-05T21:02:36.218Z,15.56
2023-05-05T21:05:02.887Z,15.51
2023-05-05T21:07:30.285Z,15.46
2023-05-05T21:09:56.880Z,15.41
2023-05-05T21:12:23.328Z,15.37
2023-05-05T21:14:49.794Z,15.32
2023-05-05T21:17:16.275Z,15.26
2023-05-05T21:19:42.741Z,15.22
2023-05-05T21:22:09.195Z,15.19
2023-05-05T21:24:35.651Z,15.14
2023-05-05T21:27:02.078Z,15.10
2023-05-05T21:29:28.536Z,15.08
2023-05-05T21:31:55.304Z,15.05
2023-05-05T21:34:21.777Z,15.01
2023-05-05T21:36:48.249Z,14.96
2023-05-05T21:39:14.706Z,14.92
2023-05-05T21:41:41.170Z,14.88
2023-05-05T21:44:07.658Z,14.84
2023-05-05T21:46:34.197Z,14.79
2023-05-05T21:49:00.655Z,14.74
2023-05-05T21:51:27.091Z,14.71
2023-05-05T21:53:53.513Z,14.66
2023-05-05T21:56:19.970Z,14.63
2023-05-05T21:58:46.442Z,14.59
2023-05-05T22:01:12.889Z,14.54
2023-05-05T22:03:39.518Z,14.50
2023-05-05T22:06:06.257Z,14.46
2023-05-05T22:08:32.740Z,14.41
2023-05-05T22:10:59.171Z,14.37
2023-05-05T22:13:25.664Z,14.35
2023-05-05T22:15:52.149Z,14.32
2023-05-05T22:18:18.588Z,14.30
2023-05-05T22:20:45.016Z,14.27
2023-05-05T22:23:11.505Z,14.24
2023-05-05T22:25:37.947Z,14.20
2023-05-05T22:28:04.519Z,14.18
2023-05-05T22:30:31.159Z,14.15
2023-05-05T22:32:57.702Z,14.12
2023-05-05T22:35:24.175Z,14.09
2023-05-05T22:37:50.634Z,14.05
2023-05-05T22:40:17.279Z,14.02
2023-05-05T22:42:43.726Z,13.99
2023-05-05T22:45:10.983Z,13.97
2023-05-05T22:47:37.677Z,13.93
2023-05-05T22:50:04.504Z,13.89
2023-05-05T22:52:30.981Z,13.86
2023-05-05T22:54:57.423Z,13.84
2023-05-05T22:57:24.165Z,13.82
2023-05-05T22:59:50.739Z,13.79
2023-05-05T23:02:17.175Z,13.72
2023-05-05T23:04:44.704Z,13.68
2023-05-05T23:07:12.484Z,13.65
2023-05-05T23:09:38.935Z,13.63
2023-05-05T23:12:05.456Z,13.63
2023-05-05T23:14:31.964Z,13.62
2023-05-05T23:16:58.621Z,13.62
2023-05-05T23:19:25.232Z,13.61
2023-05-05T23:21:53.521Z,13.60
2023-05-05T23:24:20.451Z,13.60
2023-05-05T23:26:46.923Z,13.58
2023-05-05T23:29:13.423Z,13.57
2023-05-05T23:31:39.839Z,13.54
2023-05-05T23:34:06.318Z,13.52
2023-05-05T23:36:32.779Z,13.49
2023-05-05T23:38:59.271Z,13.45
2023-05-05T23:41:25.728Z,13.43
2023-05-05T23:43:52.143Z,13.40
2023-05-05T23:46:18.686Z,13.39
2023-05-05T23:48:45.153Z,13.36
2023-05-05T23:51:11.594Z,13.34
2023-05-05T23:53:38.031Z,13.32
2023-05-05T23:56:04.813Z,13.30
2023-05-05T23:58:31.278Z,13.29
